Terminal Aerodrome Forecast
Issued by NWS Spokane, WA

Home | Current Version | Previous Version | Text Only | Print | Product List | Glossary On
Versions: 1 2 3 4 5 6 7 8 9 10 11 12
000
FTUS46 KOTX 221720
TAFEAT
TAF
KEAT 221720Z 2218/2318 29009KT P6SM FEW250
     FM222000 15005KT P6SM FEW250
     FM230700 32008KT P6SM FEW200=

USA.gov is the U.S. government's official web portal to all federal, state and local government web resources and services.